createdAt,value
2023-04-25T05:01:11.365Z,94445.00
2023-04-25T05:02:11.474Z,94445.00
2023-04-25T05:03:11.567Z,94443.00
2023-04-25T05:04:11.657Z,94443.00
2023-04-25T05:05:11.477Z,94445.00
2023-04-25T05:06:11.523Z,94445.00
2023-04-25T05:07:11.566Z,94447.00
2023-04-25T05:08:11.572Z,94447.00
2023-04-25T05:09:11.590Z,94445.00
2023-04-25T05:10:11.683Z,94441.00
2023-04-25T05:11:11.706Z,94443.00
2023-04-25T05:12:11.744Z,94439.00
2023-04-25T05:13:11.750Z,94441.00
2023-04-25T05:14:11.795Z,94439.00
2023-04-25T05:15:11.808Z,94439.00
2023-04-25T05:16:11.879Z,94437.00
2023-04-25T05:17:11.860Z,94437.00
2023-04-25T05:18:11.931Z,94437.00
2023-04-25T05:19:11.908Z,94437.00
2023-04-25T05:20:11.940Z,94439.00
2023-04-25T05:21:11.916Z,94441.00
2023-04-25T05:22:11.909Z,94441.00
2023-04-25T05:23:11.973Z,94445.00
2023-04-25T05:24:12.012Z,94445.00
2023-04-25T05:25:11.984Z,94445.00
2023-04-25T05:26:11.986Z,94445.00
2023-04-25T05:27:11.984Z,94443.00
2023-04-25T05:28:12.030Z,94443.00
2023-04-25T05:29:12.066Z,94441.00
2023-04-25T05:30:12.063Z,94441.00
2023-04-25T05:31:12.068Z,94439.00
2023-04-25T05:32:12.160Z,94439.00
2023-04-25T05:33:12.175Z,94437.00
2023-04-25T05:34:12.131Z,94441.00
2023-04-25T05:35:12.185Z,94441.00
2023-04-25T05:36:12.211Z,94441.00
2023-04-25T05:37:12.224Z,94431.00
2023-04-25T05:38:12.248Z,94435.00
2023-04-25T05:39:12.338Z,94433.00
2023-04-25T05:40:12.337Z,94429.00
2023-04-25T05:41:12.432Z,94433.00
2023-04-25T05:42:12.412Z,94435.00
2023-04-25T05:43:12.431Z,94431.00
2023-04-25T05:44:12.449Z,94433.00
2023-04-25T05:45:12.511Z,94435.00
2023-04-25T05:46:12.630Z,94433.00
2023-04-25T05:47:12.615Z,94433.00
2023-04-25T05:48:12.657Z,94427.00
2023-04-25T05:49:12.642Z,94425.00
2023-04-25T05:50:12.654Z,94425.00
2023-04-25T05:51:12.636Z,94425.00
2023-04-25T05:52:12.678Z,94427.00
2023-04-25T05:53:12.716Z,94433.00
2023-04-25T05:54:12.675Z,94435.00
2023-04-25T05:55:12.788Z,94433.00
2023-04-25T05:56:12.755Z,94429.00
2023-04-25T05:57:12.836Z,94427.00
2023-04-25T05:58:12.913Z,94423.00
2023-04-25T05:59:12.931Z,94417.00
2023-04-25T06:00:12.940Z,94407.00
2023-04-25T06:01:12.991Z,94404.00
2023-04-25T06:02:13.111Z,94396.00
2023-04-25T06:03:13.266Z,94398.00
2023-04-25T06:04:13.438Z,94394.00
2023-04-25T06:05:14.612Z,94394.00
2023-04-25T06:06:13.126Z,94396.00
2023-04-25T06:07:13.184Z,94392.00
2023-04-25T06:08:13.221Z,94402.00
2023-04-25T06:09:14.460Z,94398.00
2023-04-25T06:10:13.305Z,94398.00
2023-04-25T06:11:13.354Z,94398.00
2023-04-25T06:12:13.372Z,94398.00
2023-04-25T06:13:13.432Z,94396.00
2023-04-25T06:14:13.389Z,94400.00
2023-04-25T06:15:27.187Z,94394.00
2023-04-25T06:16:14.436Z,94384.00
2023-04-25T06:17:13.422Z,94396.00
2023-04-25T06:18:13.446Z,94392.00
2023-04-25T06:19:13.399Z,94392.00
2023-04-25T06:20:13.442Z,94394.00
2023-04-25T06:21:13.364Z,94400.00
2023-04-25T06:22:13.385Z,94396.00
2023-04-25T06:23:13.391Z,94394.00
2023-04-25T06:24:13.363Z,94396.00
2023-04-25T06:25:13.375Z,94396.00
2023-04-25T06:26:13.415Z,94384.00
2023-04-25T06:27:14.733Z,94392.00
2023-04-25T06:28:13.448Z,94394.00
2023-04-25T06:29:13.525Z,94384.00
2023-04-25T06:30:13.428Z,94378.00
2023-04-25T06:31:13.450Z,94378.00
2023-04-25T06:32:13.426Z,94372.00
2023-04-25T06:33:13.469Z,94372.00
2023-04-25T06:34:13.443Z,94374.00
2023-04-25T06:35:13.394Z,94374.00
2023-04-25T06:36:13.392Z,94372.00
2023-04-25T06:37:13.411Z,94370.00
2023-04-25T06:38:13.411Z,94374.00
2023-04-25T06:39:13.385Z,94372.00
2023-04-25T06:40:13.520Z,94374.00
2023-04-25T06:41:13.376Z,94376.00
2023-04-25T06:42:13.376Z,94380.00
2023-04-25T06:43:13.354Z,94374.00
2023-04-25T06:44:13.327Z,94378.00
2023-04-25T06:45:13.352Z,94378.00
2023-04-25T06:46:13.396Z,94378.00
2023-04-25T06:47:13.326Z,94374.00
2023-04-25T06:48:13.332Z,94376.00
2023-04-25T06:49:13.361Z,94374.00
2023-04-25T06:50:13.281Z,94374.00
2023-04-25T06:51:13.308Z,94374.00
2023-04-25T06:52:13.281Z,94376.00
2023-04-25T06:53:13.284Z,94374.00
2023-04-25T06:54:13.263Z,94372.00
2023-04-25T06:55:13.274Z,94370.00
2023-04-25T06:56:13.264Z,94366.00
2023-04-25T06:57:13.271Z,94361.00
2023-04-25T06:58:13.256Z,94362.00
2023-04-25T06:59:13.245Z,94364.00
2023-04-25T07:00:13.241Z,94362.00
2023-04-25T07:01:13.322Z,94362.00
2023-04-25T07:02:13.282Z,94359.00
2023-04-25T07:03:13.395Z,94357.00
2023-04-25T07:04:13.446Z,94355.00
2023-04-25T07:05:13.245Z,94353.00
2023-04-25T07:06:13.188Z,94355.00
2023-04-25T07:07:13.173Z,94353.00
2023-04-25T07:08:13.231Z,94353.00
2023-04-25T07:09:13.180Z,94355.00
2023-04-25T07:10:13.200Z,94355.00
2023-04-25T07:11:13.165Z,94357.00
2023-04-25T07:12:13.151Z,94351.00
2023-04-25T07:13:13.155Z,94355.00
2023-04-25T07:14:13.171Z,94359.00
2023-04-25T07:15:13.178Z,94357.00
2023-04-25T07:16:13.171Z,94359.00
2023-04-25T07:17:13.131Z,94355.00
2023-04-25T07:18:13.174Z,94357.00
2023-04-25T07:19:13.131Z,94359.00
2023-04-25T07:20:13.152Z,94357.00
2023-04-25T07:21:13.112Z,94361.00
2023-04-25T07:22:13.149Z,94361.00
2023-04-25T07:23:13.068Z,94362.00
2023-04-25T07:24:13.074Z,94361.00
2023-04-25T07:25:13.158Z,94362.00
2023-04-25T07:26:13.041Z,94364.00
2023-04-25T07:27:13.101Z,94361.00
2023-04-25T07:28:13.048Z,94359.00
2023-04-25T07:29:13.061Z,94355.00
2023-04-25T07:30:13.034Z,94357.00
2023-04-25T07:31:13.023Z,94359.00
2023-04-25T07:32:13.257Z,94359.00
2023-04-25T07:33:13.065Z,94359.00
2023-04-25T07:34:13.024Z,94361.00
2023-04-25T07:35:12.989Z,94361.00
2023-04-25T07:36:12.965Z,94359.00
2023-04-25T07:37:12.990Z,94361.00
2023-04-25T07:38:12.996Z,94361.00
2023-04-25T07:39:12.961Z,94362.00
2023-04-25T07:40:12.999Z,94362.00
2023-04-25T07:41:12.948Z,94364.00
2023-04-25T07:42:12.970Z,94366.00
2023-04-25T07:43:12.952Z,94362.00
2023-04-25T07:44:12.959Z,94362.00
2023-04-25T07:45:12.899Z,94361.00
2023-04-25T07:46:13.013Z,94355.00
2023-04-25T07:47:12.932Z,94355.00
2023-04-25T07:48:12.956Z,94355.00
2023-04-25T07:49:12.870Z,94353.00
2023-04-25T07:50:12.941Z,94353.00
2023-04-25T07:51:12.907Z,94357.00
2023-04-25T07:52:12.943Z,94359.00
2023-04-25T07:53:12.993Z,94359.00
2023-04-25T07:54:13.030Z,94361.00
2023-04-25T07:55:13.129Z,94359.00
2023-04-25T07:56:13.147Z,94359.00
2023-04-25T07:57:13.145Z,94361.00
2023-04-25T07:58:13.197Z,94355.00
2023-04-25T07:59:13.214Z,94357.00
2023-04-25T08:00:13.311Z,94355.00
2023-04-25T08:01:13.350Z,94355.00
2023-04-25T08:02:13.417Z,94353.00
2023-04-25T08:03:13.621Z,94351.00
2023-04-25T08:04:13.580Z,94355.00
2023-04-25T08:05:13.816Z,94353.00
2023-04-25T08:06:13.822Z,94355.00
2023-04-25T08:07:13.618Z,94355.00
2023-04-25T08:08:13.656Z,94355.00
2023-04-25T08:09:13.776Z,94357.00
2023-04-25T08:10:13.735Z,94357.00
2023-04-25T08:11:13.852Z,94359.00
2023-04-25T08:12:13.800Z,94357.00
2023-04-25T08:13:13.935Z,94357.00
2023-04-25T08:14:13.896Z,94357.00
2023-04-25T08:15:13.894Z,94357.00
2023-04-25T08:16:13.968Z,94355.00
2023-04-25T08:17:13.976Z,94357.00
2023-04-25T08:18:16.233Z,94359.00
2023-04-25T08:19:13.990Z,94357.00
2023-04-25T08:20:14.000Z,94359.00
2023-04-25T08:21:13.984Z,94359.00
2023-04-25T08:22:14.033Z,94359.00
2023-04-25T08:23:13.984Z,94364.00
2023-04-25T08:24:13.983Z,94361.00
2023-04-25T08:25:13.980Z,94361.00
2023-04-25T08:26:13.962Z,94362.00
2023-04-25T08:27:14.036Z,94361.00
2023-04-25T08:28:13.945Z,94361.00
2023-04-25T08:29:13.921Z,94359.00
2023-04-25T08:30:13.945Z,94355.00
2023-04-25T08:31:13.952Z,94355.00
2023-04-25T08:32:14.224Z,94357.00
2023-04-25T08:33:13.941Z,94355.00
2023-04-25T08:34:13.889Z,94349.00
2023-04-25T08:35:13.932Z,94351.00
2023-04-25T08:36:17.325Z,94351.00
2023-04-25T08:37:14.839Z,94349.00
2023-04-25T08:38:13.870Z,94353.00
2023-04-25T08:39:14.978Z,94351.00
2023-04-25T08:40:13.976Z,94347.00
2023-04-25T08:41:13.911Z,94351.00
2023-04-25T08:42:13.858Z,94349.00
2023-04-25T08:43:13.825Z,94351.00
2023-04-25T08:44:13.862Z,94353.00
2023-04-25T08:45:13.857Z,94353.00
2023-04-25T08:46:13.842Z,94355.00
2023-04-25T08:47:13.948Z,94359.00
2023-04-25T08:48:13.856Z,94355.00
2023-04-25T08:49:13.797Z,94355.00
2023-04-25T08:50:13.779Z,94357.00
2023-04-25T08:51:13.796Z,94355.00
2023-04-25T08:52:13.825Z,94355.00
2023-04-25T08:53:13.754Z,94353.00
2023-04-25T08:54:28.067Z,94353.00
2023-04-25T08:55:14.772Z,94349.00
2023-04-25T08:56:13.782Z,94345.00
2023-04-25T08:57:13.727Z,94349.00
2023-04-25T08:58:13.955Z,94347.00
2023-04-25T08:59:13.718Z,94347.00
2023-04-25T09:00:13.690Z,94349.00
2023-04-25T09:01:13.732Z,94349.00
2023-04-25T09:02:13.908Z,94343.00
2023-04-25T09:03:13.933Z,94343.00
2023-04-25T09:04:13.853Z,94343.00
2023-04-25T09:05:13.869Z,94343.00
2023-04-25T09:06:13.661Z,94341.00
2023-04-25T09:07:13.633Z,94343.00
2023-04-25T09:08:13.635Z,94341.00
2023-04-25T09:09:13.632Z,94343.00
2023-04-25T09:10:13.649Z,94339.00
2023-04-25T09:11:13.624Z,94339.00
2023-04-25T09:12:13.620Z,94337.00
2023-04-25T09:13:13.614Z,94337.00
2023-04-25T09:14:13.639Z,94341.00
2023-04-25T09:16:14.707Z,94341.00
2023-04-25T09:17:13.725Z,94341.00
2023-04-25T09:18:13.737Z,94345.00
2023-04-25T09:19:13.680Z,94339.00
2023-04-25T09:20:13.683Z,94341.00
2023-04-25T09:21:14.968Z,94341.00
2023-04-25T09:22:13.681Z,94341.00
2023-04-25T09:23:13.616Z,94339.00
2023-04-25T09:24:13.621Z,94343.00
2023-04-25T09:25:13.655Z,94341.00
2023-04-25T09:26:13.683Z,94341.00
2023-04-25T09:27:13.730Z,94339.00
2023-04-25T09:28:13.775Z,94343.00
2023-04-25T09:29:13.797Z,94345.00
2023-04-25T09:30:13.829Z,94349.00
2023-04-25T09:31:13.869Z,94353.00
2023-04-25T09:32:14.163Z,94351.00
2023-04-25T09:33:13.972Z,94353.00
2023-04-25T09:34:13.905Z,94353.00
2023-04-25T09:35:13.913Z,94353.00
2023-04-25T09:36:13.938Z,94355.00
2023-04-25T09:37:13.944Z,94357.00
2023-04-25T09:38:13.954Z,94355.00
2023-04-25T09:39:13.912Z,94351.00
2023-04-25T09:40:13.941Z,94353.00
2023-04-25T09:41:13.936Z,94351.00
2023-04-25T09:42:13.936Z,94353.00
2023-04-25T09:43:13.949Z,94353.00
2023-04-25T09:44:14.040Z,94351.00
2023-04-25T09:45:14.008Z,94353.00
2023-04-25T09:46:14.018Z,94357.00
2023-04-25T09:47:14.065Z,94357.00
2023-04-25T09:48:15.026Z,94353.00
2023-04-25T09:49:14.039Z,94355.00
2023-04-25T09:50:14.095Z,94353.00
2023-04-25T09:51:14.128Z,94351.00
2023-04-25T09:52:14.150Z,94351.00
2023-04-25T09:53:14.139Z,94351.00
2023-04-25T09:54:14.187Z,94355.00
2023-04-25T09:55:14.292Z,94353.00
2023-04-25T09:56:14.257Z,94355.00
2023-04-25T09:57:14.290Z,94353.00
2023-04-25T09:58:14.287Z,94355.00
2023-04-25T09:59:14.363Z,94361.00
2023-04-25T10:00:14.401Z,94361.00
2023-04-25T10:01:14.397Z,94362.00
2023-04-25T10:02:14.448Z,94364.00
2023-04-25T10:03:14.554Z,94362.00
2023-04-25T10:04:14.555Z,94362.00
2023-04-25T10:05:14.586Z,94364.00
2023-04-25T10:06:14.569Z,94362.00
2023-04-25T10:07:14.652Z,94361.00
2023-04-25T10:08:14.665Z,94359.00
2023-04-25T10:09:14.709Z,94359.00
2023-04-25T10:10:14.847Z,94359.00
2023-04-25T10:11:14.772Z,94357.00
2023-04-25T10:12:14.848Z,94355.00
2023-04-25T10:13:14.839Z,94355.00
2023-04-25T10:14:14.906Z,94355.00
2023-04-25T10:15:14.894Z,94353.00
2023-04-25T10:16:14.976Z,94353.00
2023-04-25T10:17:14.939Z,94347.00
2023-04-25T10:18:15.123Z,94349.00
2023-04-25T10:19:14.978Z,94345.00
2023-04-25T10:20:14.976Z,94347.00
2023-04-25T10:21:14.976Z,94343.00
2023-04-25T10:22:15.019Z,94343.00
2023-04-25T10:23:15.053Z,94341.00
2023-04-25T10:24:15.032Z,94341.00
2023-04-25T10:25:15.058Z,94339.00
2023-04-25T10:26:15.141Z,94343.00
2023-04-25T10:27:15.036Z,94341.00
2023-04-25T10:28:15.070Z,94339.00
2023-04-25T10:29:15.519Z,94333.00
2023-04-25T10:30:15.156Z,94331.00
2023-04-25T10:31:15.180Z,94329.00
2023-04-25T10:32:15.212Z,94327.00
2023-04-25T10:33:15.118Z,94323.00
2023-04-25T10:34:15.113Z,94323.00
2023-04-25T10:35:15.145Z,94325.00
2023-04-25T10:36:15.142Z,94321.00
2023-04-25T10:37:15.150Z,94323.00
2023-04-25T10:38:15.233Z,94321.00
2023-04-25T10:39:15.190Z,94317.00
2023-04-25T10:40:15.204Z,94315.00
2023-04-25T10:41:15.287Z,94317.00
2023-04-25T10:42:15.210Z,94319.00
2023-04-25T10:43:15.222Z,94317.00
2023-04-25T10:44:15.256Z,94315.00
2023-04-25T10:45:15.285Z,94315.00
2023-04-25T10:46:15.347Z,94315.00
2023-04-25T10:47:15.297Z,94314.00
2023-04-25T10:48:15.303Z,94310.00
2023-04-25T10:49:16.242Z,94314.00
2023-04-25T10:50:15.357Z,94319.00
2023-04-25T10:51:15.414Z,94315.00
2023-04-25T10:52:15.371Z,94315.00
2023-04-25T10:53:15.373Z,94317.00
2023-04-25T10:54:15.426Z,94319.00
2023-04-25T10:55:15.437Z,94319.00
2023-04-25T10:56:15.543Z,94323.00
2023-04-25T10:57:15.440Z,94325.00
2023-04-25T10:58:15.465Z,94327.00
2023-04-25T10:59:15.458Z,94327.00
2023-04-25T11:00:15.619Z,94331.00
2023-04-25T11:01:15.563Z,94329.00
2023-04-25T11:02:15.736Z,94331.00
2023-04-25T11:03:15.594Z,94327.00
2023-04-25T11:04:15.747Z,94325.00
2023-04-25T11:05:15.489Z,94323.00
2023-04-25T11:06:15.488Z,94321.00
2023-04-25T11:07:15.534Z,94319.00
2023-04-25T11:08:15.510Z,94317.00
2023-04-25T11:09:15.551Z,94315.00
2023-04-25T11:10:15.487Z,94312.00
2023-04-25T11:11:15.523Z,94310.00
2023-04-25T11:12:15.559Z,94308.00
2023-04-25T11:13:15.544Z,94308.00
2023-04-25T11:14:15.516Z,94310.00
2023-04-25T11:15:15.580Z,94312.00
2023-04-25T11:16:23.750Z,94310.00
2023-04-25T11:17:16.686Z,94312.00
2023-04-25T11:18:15.578Z,94312.00
2023-04-25T11:19:15.518Z,94310.00
2023-04-25T11:20:15.523Z,94310.00
2023-04-25T11:21:15.538Z,94312.00
2023-04-25T11:22:15.527Z,94310.00
2023-04-25T11:23:15.594Z,94310.00
2023-04-25T11:24:15.497Z,94310.00
2023-04-25T11:25:15.524Z,94310.00
2023-04-25T11:26:15.504Z,94312.00
2023-04-25T11:27:15.493Z,94310.00
2023-04-25T11:28:15.516Z,94310.00
2023-04-25T11:29:15.442Z,94312.00
2023-04-25T11:30:15.453Z,94315.00
2023-04-25T11:31:15.444Z,94319.00
2023-04-25T11:32:15.611Z,94321.00
2023-04-25T11:33:15.529Z,94325.00
2023-04-25T11:34:15.452Z,94329.00
2023-04-25T11:35:15.420Z,94335.00
2023-04-25T11:36:15.412Z,94335.00
2023-04-25T11:37:15.452Z,94337.00
2023-04-25T11:38:15.396Z,94337.00
2023-04-25T11:39:15.422Z,94341.00
2023-04-25T11:40:15.458Z,94339.00
2023-04-25T11:41:15.491Z,94339.00
2023-04-25T11:42:15.496Z,94349.00
2023-04-25T11:43:15.540Z,94351.00
2023-04-25T11:44:15.603Z,94355.00
2023-04-25T11:45:15.589Z,94361.00
2023-04-25T11:46:15.635Z,94366.00
2023-04-25T11:47:15.667Z,94362.00
2023-04-25T11:48:15.731Z,94362.00
2023-04-25T11:49:15.693Z,94370.00
2023-04-25T11:50:15.704Z,94364.00
2023-04-25T11:51:15.757Z,94362.00
2023-04-25T11:52:15.780Z,94361.00
2023-04-25T11:53:15.809Z,94359.00
2023-04-25T11:54:15.858Z,94355.00
2023-04-25T11:55:15.906Z,94359.00
2023-04-25T11:56:15.905Z,94364.00
2023-04-25T11:57:15.931Z,94361.00
2023-04-25T11:58:15.960Z,94361.00
2023-04-25T11:59:15.970Z,94359.00
2023-04-25T12:00:18.705Z,94357.00
2023-04-25T12:01:15.985Z,94357.00
2023-04-25T12:02:16.071Z,94357.00
2023-04-25T12:03:16.202Z,94355.00
2023-04-25T12:04:16.160Z,94351.00
2023-04-25T12:05:31.050Z,94349.00
2023-04-25T12:06:17.139Z,94347.00
2023-04-25T12:07:16.118Z,94345.00
2023-04-25T12:08:16.187Z,94345.00
2023-04-25T12:09:16.113Z,94343.00
2023-04-25T12:10:16.163Z,94339.00
2023-04-25T12:11:16.192Z,94333.00
2023-04-25T12:12:16.239Z,94333.00
2023-04-25T12:13:16.544Z,94335.00
2023-04-25T12:14:16.246Z,94331.00
2023-04-25T12:15:16.303Z,94339.00
2023-04-25T12:16:16.362Z,94339.00
2023-04-25T12:17:16.275Z,94339.00
2023-04-25T12:18:16.347Z,94337.00
2023-04-25T12:19:16.331Z,94337.00
2023-04-25T12:20:16.377Z,94333.00
2023-04-25T12:21:16.331Z,94329.00
2023-04-25T12:22:16.407Z,94327.00
2023-04-25T12:23:16.389Z,94325.00
2023-04-25T12:24:16.351Z,94325.00
2023-04-25T12:25:16.362Z,94325.00
2023-04-25T12:26:16.388Z,94325.00
2023-04-25T12:27:16.482Z,94319.00
2023-04-25T12:28:16.438Z,94317.00
2023-04-25T12:29:16.480Z,94317.00
2023-04-25T12:30:16.456Z,94317.00
2023-04-25T12:31:16.533Z,94317.00
2023-04-25T12:32:16.665Z,94317.00
2023-04-25T12:33:16.606Z,94317.00
2023-04-25T12:34:16.520Z,94317.00
2023-04-25T12:35:16.507Z,94312.00
2023-04-25T12:36:16.563Z,94308.00
2023-04-25T12:37:16.601Z,94306.00
2023-04-25T12:38:16.638Z,94306.00
2023-04-25T12:39:16.642Z,94308.00
2023-04-25T12:40:16.653Z,94312.00
2023-04-25T12:41:16.623Z,94312.00
2023-04-25T12:42:16.656Z,94314.00
2023-04-25T12:43:16.717Z,94306.00
2023-04-25T12:44:16.680Z,94304.00
2023-04-25T12:45:16.713Z,94304.00
2023-04-25T12:46:16.695Z,94304.00
2023-04-25T12:47:16.683Z,94302.00
2023-04-25T12:48:16.724Z,94304.00
2023-04-25T12:49:19.070Z,94302.00
2023-04-25T12:50:16.837Z,94300.00
2023-04-25T12:51:16.837Z,94306.00
2023-04-25T12:52:16.835Z,94308.00
2023-04-25T12:53:16.903Z,94306.00
2023-04-25T12:54:16.866Z,94306.00
2023-04-25T12:55:16.894Z,94302.00
2023-04-25T12:56:16.899Z,94308.00
2023-04-25T12:57:16.929Z,94308.00
2023-04-25T12:58:16.952Z,94312.00
2023-04-25T12:59:16.976Z,94312.00
2023-04-25T13:00:17.023Z,94314.00
2023-04-25T13:01:17.069Z,94317.00
2023-04-25T13:02:17.160Z,94315.00
2023-04-25T13:03:17.232Z,94317.00
2023-04-25T13:04:17.516Z,94315.00
2023-04-25T13:05:17.243Z,94310.00
2023-04-25T13:06:17.248Z,94306.00
2023-04-25T13:07:17.207Z,94304.00
2023-04-25T13:08:17.255Z,94300.00
2023-04-25T13:09:17.302Z,94300.00
2023-04-25T13:10:17.318Z,94296.00
2023-04-25T13:11:17.395Z,94296.00
2023-04-25T13:12:17.470Z,94296.00
2023-04-25T13:13:17.486Z,94302.00
2023-04-25T13:14:17.522Z,94300.00
2023-04-25T13:15:17.550Z,94302.00
2023-04-25T13:16:17.589Z,94304.00
2023-04-25T13:17:17.712Z,94302.00
2023-04-25T13:18:17.750Z,94304.00
2023-04-25T13:19:17.700Z,94310.00
2023-04-25T13:20:17.652Z,94314.00
2023-04-25T13:21:17.682Z,94314.00
2023-04-25T13:22:17.750Z,94312.00
2023-04-25T13:23:17.725Z,94312.00
2023-04-25T13:24:17.771Z,94310.00
2023-04-25T13:25:17.779Z,94312.00
2023-04-25T13:26:17.760Z,94317.00
2023-04-25T13:27:17.783Z,94319.00
2023-04-25T13:28:17.770Z,94319.00
2023-04-25T13:29:17.865Z,94319.00
2023-04-25T13:30:17.847Z,94319.00
2023-04-25T13:31:17.967Z,94317.00
2023-04-25T13:32:17.937Z,94319.00
2023-04-25T13:33:17.961Z,94319.00
2023-04-25T13:34:17.953Z,94319.00
2023-04-25T13:35:17.972Z,94321.00
2023-04-25T13:36:18.031Z,94315.00
2023-04-25T13:37:18.055Z,94310.00
2023-04-25T13:38:18.050Z,94310.00
2023-04-25T13:39:18.046Z,94306.00
2023-04-25T13:40:18.109Z,94310.00
2023-04-25T13:41:18.062Z,94300.00
2023-04-25T13:42:18.090Z,94302.00
2023-04-25T13:43:18.084Z,94300.00
2023-04-25T13:44:18.099Z,94300.00
2023-04-25T13:45:18.131Z,94296.00
2023-04-25T13:47:18.143Z,94290.00
2023-04-25T13:48:18.126Z,94292.00
2023-04-25T13:49:18.095Z,94282.00
2023-04-25T13:50:18.109Z,94288.00
2023-04-25T13:51:18.050Z,94276.00
2023-04-25T13:52:18.082Z,94274.00
2023-04-25T13:53:18.107Z,94278.00
2023-04-25T13:54:18.037Z,94282.00
2023-04-25T13:55:18.039Z,94282.00
2023-04-25T13:56:18.077Z,94274.00
2023-04-25T13:57:18.044Z,94274.00
2023-04-25T13:58:18.056Z,94280.00
2023-04-25T13:59:18.066Z,94280.00
2023-04-25T14:00:18.048Z,94274.00
2023-04-25T14:01:17.983Z,94276.00
2023-04-25T14:02:18.015Z,94282.00
2023-04-25T14:03:18.071Z,94290.00
2023-04-25T14:04:18.036Z,94294.00
2023-04-25T14:05:18.052Z,94296.00
2023-04-25T14:06:18.000Z,94288.00
2023-04-25T14:07:17.982Z,94290.00
2023-04-25T14:08:17.979Z,94312.00
2023-04-25T14:09:17.956Z,94302.00
2023-04-25T14:10:17.994Z,94304.00
2023-04-25T14:11:17.975Z,94296.00
2023-04-25T14:12:17.971Z,94286.00
2023-04-25T14:13:17.935Z,94292.00
2023-04-25T14:14:17.958Z,94300.00
2023-04-25T14:15:17.935Z,94300.00
2023-04-25T14:16:18.213Z,94294.00
2023-04-25T14:17:17.948Z,94294.00
2023-04-25T14:18:17.906Z,94294.00
2023-04-25T14:19:20.209Z,94280.00
2023-04-25T14:20:17.912Z,94300.00
2023-04-25T14:21:17.892Z,94298.00
2023-04-25T14:22:17.903Z,94304.00
2023-04-25T14:23:17.848Z,94298.00
2023-04-25T14:24:17.844Z,94292.00
2023-04-25T14:25:17.913Z,94306.00
2023-04-25T14:26:17.856Z,94300.00
2023-04-25T14:27:17.836Z,94308.00
2023-04-25T14:28:17.850Z,94314.00
2023-04-25T14:29:17.832Z,94314.00
2023-04-25T14:30:17.862Z,94321.00
2023-04-25T14:31:17.862Z,94312.00
2023-04-25T14:32:17.851Z,94314.00
2023-04-25T14:33:17.854Z,94323.00
2023-04-25T14:34:17.823Z,94323.00
2023-04-25T14:35:17.819Z,94331.00
2023-04-25T14:36:17.789Z,94333.00
2023-04-25T14:37:17.801Z,94341.00
2023-04-25T14:38:17.802Z,94337.00
2023-04-25T14:39:17.801Z,94339.00
2023-04-25T14:40:17.781Z,94339.00
2023-04-25T14:41:17.795Z,94359.00
2023-04-25T14:42:17.751Z,94355.00
2023-04-25T14:43:17.780Z,94353.00
2023-04-25T14:44:17.730Z,94353.00
2023-04-25T14:45:17.757Z,94359.00
2023-04-25T14:46:17.800Z,94374.00
2023-04-25T14:47:17.702Z,94368.00
2023-04-25T14:48:17.797Z,94366.00
2023-04-25T14:49:17.743Z,94372.00
2023-04-25T14:50:17.690Z,94370.00
2023-04-25T14:51:17.701Z,94374.00
2023-04-25T14:52:17.710Z,94374.00
2023-04-25T14:53:17.696Z,94376.00
2023-04-25T14:54:17.679Z,94374.00
2023-04-25T14:55:17.716Z,94378.00
2023-04-25T14:56:17.668Z,94380.00
2023-04-25T14:57:17.699Z,94392.00
2023-04-25T14:58:17.722Z,94380.00
2023-04-25T14:59:17.766Z,94382.00
2023-04-25T15:00:17.902Z,94378.00
2023-04-25T15:01:17.961Z,94382.00
2023-04-25T15:02:17.961Z,94382.00
2023-04-25T15:03:18.221Z,94400.00
2023-04-25T15:04:18.102Z,94409.00
2023-04-25T15:05:18.082Z,94411.00
2023-04-25T15:06:18.156Z,94421.00
2023-04-25T15:07:18.758Z,94423.00
2023-04-25T15:08:18.235Z,94431.00
2023-04-25T15:09:19.355Z,94437.00
2023-04-25T15:10:18.338Z,94447.00
2023-04-25T15:11:18.381Z,94443.00
2023-04-25T15:12:18.419Z,94439.00
2023-04-25T15:13:18.473Z,94445.00
2023-04-25T15:14:18.534Z,94449.00
2023-04-25T15:15:26.121Z,94453.00
2023-04-25T15:16:19.556Z,94470.00
2023-04-25T15:17:18.521Z,94478.00
2023-04-25T15:18:18.631Z,94478.00
2023-04-25T15:19:18.533Z,94482.00
2023-04-25T15:20:18.480Z,94492.00
2023-04-25T15:21:18.471Z,94486.00
2023-04-25T15:22:18.503Z,94488.00
2023-04-25T15:23:18.511Z,94486.00
2023-04-25T15:24:18.458Z,94486.00
2023-04-25T15:25:18.429Z,94482.00
2023-04-25T15:26:18.441Z,94480.00
2023-04-25T15:27:18.466Z,94482.00
2023-04-25T15:28:18.493Z,94478.00
2023-04-25T15:29:18.497Z,94474.00
2023-04-25T15:30:18.567Z,94472.00
2023-04-25T15:31:18.611Z,94474.00
2023-04-25T15:32:18.685Z,94482.00
2023-04-25T15:33:18.709Z,94486.00
2023-04-25T15:34:18.739Z,94482.00
2023-04-25T15:35:18.799Z,94482.00
2023-04-25T15:36:18.860Z,94480.00
2023-04-25T15:37:18.895Z,94484.00
2023-04-25T15:38:18.932Z,94490.00
2023-04-25T15:39:19.027Z,94488.00
2023-04-25T15:40:19.048Z,94492.00
2023-04-25T15:41:19.093Z,94490.00
2023-04-25T15:42:19.173Z,94494.00
2023-04-25T15:43:19.205Z,94490.00
2023-04-25T15:44:19.250Z,94490.00
2023-04-25T15:45:19.304Z,94494.00
2023-04-25T15:46:19.449Z,94496.00
2023-04-25T15:47:19.421Z,94500.00
2023-04-25T15:48:19.458Z,94501.00
2023-04-25T15:49:19.520Z,94503.00
2023-04-25T15:50:19.601Z,94503.00
2023-04-25T15:51:19.607Z,94503.00
2023-04-25T15:52:19.753Z,94500.00
2023-04-25T15:53:19.713Z,94505.00
2023-04-25T15:54:19.772Z,94501.00
2023-04-25T15:55:19.803Z,94505.00
2023-04-25T15:56:19.836Z,94505.00
2023-04-25T15:57:19.884Z,94507.00
2023-04-25T15:58:19.962Z,94505.00
2023-04-25T15:59:20.014Z,94505.00
2023-04-25T16:00:20.033Z,94507.00
2023-04-25T16:01:20.126Z,94511.00
2023-04-25T16:02:20.193Z,94515.00
2023-04-25T16:03:20.393Z,94513.00
2023-04-25T16:04:20.450Z,94513.00
2023-04-25T16:05:20.317Z,94515.00
2023-04-25T16:06:20.337Z,94515.00
2023-04-25T16:07:20.390Z,94515.00
2023-04-25T16:08:20.418Z,94519.00
2023-04-25T16:09:20.516Z,94519.00
2023-04-25T16:10:20.610Z,94517.00
2023-04-25T16:11:20.604Z,94517.00
2023-04-25T16:12:20.719Z,94515.00
2023-04-25T16:13:20.719Z,94519.00
2023-04-25T16:14:20.734Z,94517.00
2023-04-25T16:15:20.859Z,94517.00
2023-04-25T16:16:20.915Z,94519.00
2023-04-25T16:17:20.917Z,94523.00
2023-04-25T16:18:21.056Z,94523.00
2023-04-25T16:19:21.105Z,94523.00
2023-04-25T16:20:21.069Z,94521.00
2023-04-25T16:21:21.136Z,94525.00
2023-04-25T16:22:21.211Z,94529.00
2023-04-25T16:23:21.264Z,94535.00
2023-04-25T16:24:21.304Z,94535.00
2023-04-25T16:25:21.346Z,94539.00
2023-04-25T16:26:21.410Z,94541.00
2023-04-25T16:27:21.474Z,94545.00
2023-04-25T16:28:21.504Z,94555.00
2023-04-25T16:29:21.583Z,94555.00
2023-04-25T16:30:21.636Z,94558.00
2023-04-25T16:31:21.725Z,94558.00
2023-04-25T16:32:21.827Z,94564.00
2023-04-25T16:33:21.805Z,94562.00
2023-04-25T16:34:21.793Z,94562.00
2023-04-25T16:35:21.877Z,94568.00
2023-04-25T16:36:21.905Z,94568.00
2023-04-25T16:37:21.964Z,94574.00
2023-04-25T16:38:21.999Z,94576.00
2023-04-25T16:39:22.051Z,94570.00
2023-04-25T16:40:22.106Z,94576.00
2023-04-25T16:41:22.129Z,94578.00
2023-04-25T16:42:22.174Z,94578.00
2023-04-25T16:43:22.192Z,94582.00
2023-04-25T16:44:22.260Z,94582.00
2023-04-25T16:45:22.299Z,94584.00
2023-04-25T16:46:22.349Z,94584.00
2023-04-25T16:47:22.412Z,94586.00